CheckWX is a tool to help pilots better visualize weather data.  It is not intended as a substitute for an official pre-flight weather briefing.

20:19:45 UTC

KCCA METAR
Clinton Municipal Airport
Clinton, Arkansas, USA
Current

25 mins ago

KCCA 261955Z AUTO VRB06KT 10SM BKN033 BKN042 BKN055 29/23 A3013 RMK AO2 LTG DSNT N AND NW
Observed
Jun-26 @ 19:55 UTC
Wind
  • Variable at 6 KTS
Visibility
10 SM
Flight Rules
VFR
Cloud Levels
  • Broken at 3,300' AGL
  • Broken at 4,200' AGL
  • Broken at 5,500' AGL
Temperature
29°C / 84°F
Dewpoint
23°C / 73°F
Heat Index
32°C / 90°F
Humidity
70%
Altimeter
30.13" Hg
Pressure
1020.32 hPa
Previous

45 mins ago

KCCA 261935Z AUTO 16007KT 10SM BKN029 BKN035 BKN044 30/24 A3012 RMK AO2 LTG DSNT W-N
Observed
Jun-26 @ 19:35 UTC
Wind
  • 160° at 7 KTS
Visibility
10 SM
Flight Rules
MVFR
Cloud Levels
  • Broken at 2,900' AGL
  • Broken at 3,500' AGL
  • Broken at 4,400' AGL
Temperature
30°C / 86°F
Dewpoint
24°C / 75°F
Heat Index
35°C / 95°F
Humidity
70%
Altimeter
30.12" Hg
Pressure
1020.02 hPa
Previous

1 hour ago

KCCA 261915Z AUTO VRB03KT 10SM BKN027 29/23 A3013 RMK AO2 LTG DSNT NW
Observed
Jun-26 @ 19:15 UTC
Wind
  • Variable at 3 KTS
Visibility
10 SM
Flight Rules
MVFR
Cloud Levels
  • Broken at 2,700' AGL
Temperature
29°C / 84°F
Dewpoint
23°C / 73°F
Heat Index
32°C / 90°F
Humidity
70%
Altimeter
30.13" Hg
Pressure
1020.32 hPa